Providence, Rhode Island
Traffic Map
Current Weather Conditions
Providence, Rhode Island
Overcast
Overcast
54°
Feels Like: 54°
Wind Chill: 54° Ceiling: 2500
Heat Index: 54° Visibility: 10mi
Dew Point: 44° Wind: 13mph
Humidity: 69% Direction: 300° (WNW)
Pressure: 29.7in Gusts: 0mph
Raw Report DataKPVD 241851Z 30011KT 10SM OVC025 12/07 A2970 RMK AO2 SLP056 T01220067
Traffic Incident Summary
Active as of:
Severity:
Category:
InformationThere was an issue retrieving the traffic information for this location. Please try a different location or try again shortly.
Advertisements
Track Severe Weather on mobile